ESMS/MMX METAR and TAF weather

Enter ICAO airport designator
Station Type Date Time Source
ESMS METAR 2022/06/27 07:50 UTC NOAA

ESMS 270750Z 12009KT CAVOK 24/16 Q1015


Station Type Date Time Source
ESMS Decoded METAR 2022/06/27 07:50 UTC NOAA

Malmo / Sturup, Sweden (ESMS) 55-33N 013-22E
Jun 27, 2022 - 03:50 AM EDT / 2022.06.27 0750 UTC
Wind: from the ESE (120 degrees) at 10 MPH (9 KT):0
Visibility: greater than 7 mile(s):0
Temperature: 75 F (24 C)
Dew Point: 60 F (16 C)
Relative Humidity: 60%
Pressure (altimeter): 29.97 in. Hg (1015 hPa)
ob: ESMS 270750Z 12009KT CAVOK 24/16 Q1015
cycle: 8

Station Type Date Time Source
ESMS TAF 2022/06/27 06:09 UTC NOAA

TAF ESMS 270501Z 2706/2806 12008KT CAVOK
TEMPO 2716/2723 SHRA SCT040CB
TEMPO 2723/2801 4000 SHRA BKN008 SCT040CB
TEMPO 2801/2806 BKN006

Example: see airport list